createdAt,value
2019-01-17T15:55:20.146Z,10.00
2019-01-17T15:57:49.275Z,14.50
2019-01-17T16:00:27.071Z,9.00
2019-01-17T16:02:57.359Z,10.00
2019-01-17T16:05:26.524Z,11.75
2019-01-17T16:07:55.626Z,13.50
2019-01-17T16:10:24.790Z,15.00
2019-01-17T16:12:53.769Z,14.00
2019-01-17T16:15:27.411Z,14.25
2019-01-17T16:17:56.482Z,14.00
2019-01-17T16:20:25.617Z,14.00
2019-01-17T16:22:54.953Z,14.00
2019-01-17T16:25:24.047Z,12.00
2019-01-17T16:27:55.219Z,16.00
2019-01-17T16:30:29.862Z,16.00
2019-01-17T16:32:58.891Z,14.00
2019-01-17T16:35:28.066Z,14.00
2019-01-17T16:37:57.469Z,12.00
2019-01-17T16:40:27.986Z,14.00
2019-01-17T16:42:57.054Z,12.00
2019-01-17T16:45:26.260Z,12.00
2019-01-17T16:47:55.511Z,13.00
2019-01-17T16:50:26.524Z,13.00
2019-01-17T16:52:55.839Z,10.00
2019-01-17T16:55:25.606Z,12.00
2019-01-17T16:57:54.653Z,12.00
2019-01-17T17:00:26.832Z,10.50
2019-01-17T17:02:55.972Z,13.50
2019-01-17T17:05:25.125Z,12.00
2019-01-17T17:07:55.844Z,10.00
2019-01-17T17:10:24.992Z,12.00
2019-01-17T17:12:54.024Z,15.50
2019-01-17T17:15:23.200Z,12.00
2019-01-17T17:17:52.417Z,12.50
2019-01-17T17:20:24.535Z,12.00
2019-01-17T17:22:53.755Z,14.00
2019-01-17T17:25:22.832Z,16.00
2019-01-17T17:27:55.503Z,16.50
2019-01-17T17:30:24.695Z,12.00
2019-01-17T17:32:53.944Z,13.50
2019-01-17T17:35:23.110Z,10.50
2019-01-17T17:37:52.307Z,16.50
2019-01-17T17:40:26.594Z,21.00
2019-01-17T17:42:55.746Z,12.00
2019-01-17T17:45:24.990Z,16.50
2019-01-17T17:47:56.713Z,12.00
2019-01-17T17:50:25.891Z,15.00
2019-01-17T17:52:55.070Z,12.00
2019-01-17T17:55:24.237Z,13.00
2019-01-17T17:57:53.439Z,15.00
2019-01-17T18:00:53.271Z,16.00
2019-01-17T18:03:25.048Z,15.50
2019-01-17T18:05:55.495Z,16.00
2019-01-17T18:08:24.541Z,19.50
2019-01-17T18:10:53.695Z,17.50
2019-01-17T18:13:22.896Z,17.50
2019-01-17T18:15:51.960Z,19.00
2019-01-17T18:18:21.125Z,12.50
2019-01-17T18:20:50.163Z,12.00
2019-01-17T18:23:19.281Z,14.50
2019-01-17T18:25:48.342Z,14.00
2019-01-17T18:28:17.447Z,12.50
2019-01-17T18:30:46.581Z,10.00
2019-01-17T18:33:15.856Z,10.00
2019-01-17T18:35:45.032Z,11.00
2019-01-17T18:38:14.237Z,13.50
2019-01-17T18:40:43.594Z,10.00
2019-01-17T18:43:12.763Z,16.00
2019-01-17T18:45:41.804Z,10.00
2019-01-17T18:48:10.912Z,14.00
2019-01-17T18:50:41.834Z,14.50
2019-01-17T18:53:11.067Z,18.00
2019-01-17T18:55:40.124Z,13.50
2019-01-17T18:58:15.362Z,16.00
2019-01-17T19:00:42.126Z,12.00
2019-01-17T19:03:11.194Z,13.50
2019-01-17T19:05:40.401Z,14.00
2019-01-17T19:08:09.520Z,11.00
2019-01-17T19:10:38.630Z,14.00
2019-01-17T19:13:07.737Z,16.00
2019-01-17T19:15:36.846Z,13.00
2019-01-17T19:18:06.269Z,12.00
2019-01-17T19:20:35.429Z,16.00
2019-01-17T19:23:06.814Z,10.50
2019-01-17T19:25:35.936Z,13.50
2019-01-17T19:28:05.682Z,11.50
2019-01-17T19:30:34.908Z,10.50
2019-01-17T19:33:04.368Z,10.00
2019-01-17T19:35:33.537Z,14.00
2019-01-17T19:38:02.694Z,14.00
2019-01-17T19:40:31.756Z,16.00
2019-01-17T19:43:00.833Z,14.50
2019-01-17T19:45:29.930Z,12.00
2019-01-17T19:47:59.020Z,14.50
2019-01-17T19:50:39.310Z,17.00
2019-01-17T19:53:09.546Z,14.00
2019-01-17T19:55:41.997Z,19.50
2019-01-17T19:58:11.035Z,14.00
2019-01-17T20:00:42.422Z,18.00
2019-01-17T20:03:12.236Z,14.50
2019-01-17T20:05:41.644Z,16.00
2019-01-17T20:08:10.741Z,16.00
2019-01-17T20:10:39.884Z,12.00
2019-01-17T20:13:09.031Z,16.50
2019-01-17T20:15:38.125Z,15.00
2019-01-17T20:18:07.324Z,13.50
2019-01-17T20:20:36.483Z,12.00
2019-01-17T20:23:06.930Z,12.00
2019-01-17T20:25:36.208Z,13.50
2019-01-17T20:28:05.810Z,15.00
2019-01-17T20:30:35.433Z,19.00
2019-01-17T20:33:06.679Z,18.50
2019-01-17T20:35:36.200Z,16.00
2019-01-17T20:38:06.271Z,15.00
2019-01-17T20:40:35.465Z,18.50
2019-01-17T20:43:04.738Z,14.50
2019-01-17T20:45:48.169Z,22.00
2019-01-17T20:48:17.210Z,14.00
2019-01-17T20:50:49.479Z,12.50
2019-01-17T20:53:20.624Z,14.00
2019-01-17T20:55:49.717Z,16.00
2019-01-17T20:58:18.833Z,17.50
2019-01-17T21:01:07.328Z,16.00
2019-01-17T21:03:37.088Z,14.00
2019-01-17T21:06:06.183Z,16.50
2019-01-17T21:08:35.290Z,13.00
2019-01-17T21:11:04.433Z,12.00
2019-01-17T21:13:33.546Z,16.00
2019-01-17T21:16:02.674Z,14.00
2019-01-17T21:18:31.771Z,16.00
2019-01-17T21:21:01.028Z,19.00
2019-01-17T21:23:31.675Z,17.00
2019-01-17T21:26:00.717Z,26.00
2019-01-17T21:28:29.727Z,16.00
2019-01-17T21:31:04.955Z,16.00
2019-01-17T21:33:33.966Z,17.50
2019-01-17T21:36:02.973Z,17.00
2019-01-17T21:38:32.098Z,20.00
2019-01-17T21:41:01.311Z,18.00
2019-01-17T21:43:30.297Z,18.50
2019-01-17T21:45:59.376Z,18.50
2019-01-17T21:48:28.355Z,19.50
2019-01-17T21:50:57.394Z,19.00
2019-01-17T21:53:27.555Z,22.00
2019-01-17T21:55:56.646Z,20.00
2019-01-17T21:58:25.850Z,21.50
2019-01-17T22:00:56.756Z,22.50
2019-01-17T22:03:25.862Z,31.50
2019-01-17T22:05:55.113Z,21.00
2019-01-17T22:08:26.467Z,22.50
2019-01-17T22:10:56.886Z,33.50
2019-01-17T22:13:25.918Z,26.50
2019-01-17T22:15:55.015Z,23.50
2019-01-17T22:18:24.126Z,26.00
2019-01-17T22:20:53.269Z,25.50
2019-01-17T22:23:25.049Z,22.50
2019-01-17T22:25:54.200Z,23.50
2019-01-17T22:28:23.293Z,22.00
2019-01-17T22:30:52.366Z,19.00
2019-01-17T22:33:21.543Z,26.00
2019-01-17T22:35:50.555Z,22.50
2019-01-17T22:38:19.696Z,26.00
2019-01-17T22:40:49.011Z,23.50
2019-01-17T22:43:18.291Z,25.00
2019-01-17T22:45:47.406Z,27.50
2019-01-17T22:48:17.371Z,22.00
2019-01-17T22:50:46.393Z,21.00
2019-01-17T22:53:15.466Z,23.00
2019-01-17T22:55:44.557Z,24.00
2019-01-17T22:58:13.960Z,20.50
2019-01-17T23:00:57.514Z,20.50
2019-01-17T23:03:41.392Z,22.00
2019-01-17T23:06:10.592Z,28.50
2019-01-17T23:08:39.667Z,25.00
2019-01-17T23:11:08.642Z,27.00
2019-01-17T23:13:37.699Z,25.00
2019-01-17T23:16:07.871Z,19.50
2019-01-17T23:18:36.928Z,20.00
2019-01-17T23:21:06.500Z,24.00
2019-01-17T23:23:35.680Z,25.00
2019-01-17T23:26:05.101Z,26.50
2019-01-17T23:28:34.244Z,24.00
2019-01-17T23:31:03.409Z,26.50
2019-01-17T23:33:32.485Z,28.00
2019-01-17T23:36:01.595Z,22.00
2019-01-17T23:38:30.682Z,26.50
2019-01-17T23:40:59.768Z,22.00
2019-01-17T23:43:28.974Z,28.00
2019-01-17T23:45:57.983Z,19.00
2019-01-17T23:48:27.280Z,19.00
2019-01-17T23:50:56.372Z,20.50
2019-01-17T23:53:25.362Z,24.50
2019-01-17T23:55:54.639Z,17.00
2019-01-17T23:58:23.802Z,21.00
